Time;durP1;ratioP1;P1;durP2;ratioP2;P2;SDS_P1;SDS_P2;PMS_P1;PMS_P2;Temp;Humidity;BMP_temperature;BMP_pressure;BME280_temperature;BME280_humidity;BME280_pressure;Samples;Min_cycle;Max_cycle;Signal;HPM_P1;HPM_P2
2022/03/31 00:02:11;;;;;;;8.50;1.33;;;3.00;99.90;;;;;;4895756;29;20457;-84
2022/03/31 00:04:40;;;;;;;8.18;1.52;;;3.00;99.90;;;;;;4913277;29;20051;-84
2022/03/31 00:07:06;;;;;;;8.32;1.55;;;3.00;99.90;;;;;;4902856;29;20126;-83
2022/03/31 00:09:32;;;;;;;5.00;1.10;;;3.00;99.90;;;;;;4913908;29;20560;-83
2022/03/31 00:12:00;;;;;;;5.28;0.85;;;3.00;99.90;;;;;;4898629;29;20040;-83
2022/03/31 00:14:27;;;;;;;5.22;0.60;;;2.90;99.90;;;;;;4900043;29;20134;-83
2022/03/31 00:16:53;;;;;;;4.55;0.95;;;3.00;99.90;;;;;;4914566;29;20035;-84
2022/03/31 00:19:19;;;;;;;7.45;0.65;;;3.00;99.90;;;;;;4909972;29;20051;-84
2022/03/31 00:22:29;;;;;;;3.50;0.68;;;3.00;99.90;;;;;;4909383;29;20044;-83
2022/03/31 00:24:54;;;;;;;2.38;0.50;;;2.90;99.90;;;;;;4928277;29;20043;-84
2022/03/31 00:27:21;;;;;;;3.80;1.08;;;2.90;99.90;;;;;;4894582;29;20040;-83
2022/03/31 00:29:47;;;;;;;1.38;0.75;;;2.90;99.90;;;;;;4898844;29;20649;-84
2022/03/31 00:32:13;;;;;;;2.25;0.73;;;2.90;99.90;;;;;;4910843;29;20054;-83
2022/03/31 00:34:39;;;;;;;2.60;0.80;;;3.00;99.90;;;;;;4897370;29;20071;-84
2022/03/31 00:37:05;;;;;;;3.75;0.50;;;3.00;99.90;;;;;;4899166;29;20058;-83
2022/03/31 00:39:34;;;;;;;1.50;0.50;;;3.00;99.90;;;;;;4914399;29;20047;-84
2022/03/31 00:42:02;;;;;;;4.15;0.80;;;3.00;99.90;;;;;;4912110;29;20396;-85
2022/03/31 00:44:29;;;;;;;2.85;0.57;;;3.00;99.90;;;;;;4928690;29;20464;-84
2022/03/31 00:46:56;;;;;;;5.38;0.73;;;3.00;99.90;;;;;;4897027;29;20079;-84
2022/03/31 00:49:23;;;;;;;3.25;0.65;;;3.00;99.90;;;;;;4897062;29;20038;-84
2022/03/31 00:51:50;;;;;;;3.40;0.68;;;2.90;99.90;;;;;;4911470;29;20035;-84
2022/03/31 00:54:19;;;;;;;2.80;0.90;;;2.90;99.90;;;;;;4897964;29;20047;-84
2022/03/31 00:56:46;;;;;;;5.55;1.33;;;2.90;99.90;;;;;;4896356;29;20043;-84
2022/03/31 00:59:12;;;;;;;8.68;0.98;;;2.90;99.90;;;;;;4913025;29;20572;-84
2022/03/31 01:01:43;;;;;;;4.25;0.80;;;2.90;99.90;;;;;;4914868;29;20500;-84
2022/03/31 01:04:09;;;;;;;3.78;0.70;;;2.80;99.90;;;;;;4910534;29;20126;-84
2022/03/31 01:06:35;;;;;;;4.70;0.80;;;2.80;99.90;;;;;;4892616;29;20040;-84
2022/03/31 01:09:04;;;;;;;3.00;0.70;;;2.80;99.90;;;;;;4929629;29;20082;-84
2022/03/31 01:11:30;;;;;;;2.78;0.60;;;2.80;99.90;;;;;;4895996;29;20053;-83
2022/03/31 01:13:57;;;;;;;1.90;0.68;;;2.80;99.90;;;;;;4930901;29;20102;-83
2022/03/31 01:16:23;;;;;;;1.98;0.70;;;2.80;99.90;;;;;;4880824;29;20515;-84
2022/03/31 01:18:52;;;;;;;3.63;0.65;;;2.80;99.90;;;;;;4896997;29;20058;-84
2022/03/31 01:21:19;;;;;;;4.65;0.63;;;2.80;99.90;;;;;;4897908;29;20051;-83
2022/03/31 01:23:46;;;;;;;3.40;0.40;;;2.80;99.90;;;;;;4927193;29;20075;-83
2022/03/31 01:26:12;;;;;;;1.60;0.50;;;2.80;99.90;;;;;;4910311;29;20044;-84
2022/03/31 01:28:42;;;;;;;3.17;0.57;;;2.80;99.90;;;;;;4898226;29;20139;-82
2022/03/31 01:31:08;;;;;;;2.95;0.50;;;2.80;99.90;;;;;;4923861;29;20036;-83
2022/03/31 01:33:34;;;;;;;4.45;1.10;;;2.80;99.90;;;;;;4895765;29;20040;-84
2022/03/31 01:36:04;;;;;;;1.58;0.60;;;2.80;99.90;;;;;;4913376;29;20161;-83
2022/03/31 01:38:30;;;;;;;2.53;0.68;;;2.80;99.90;;;;;;4908719;29;20553;-85
2022/03/31 01:40:56;;;;;;;3.97;1.77;;;2.70;99.90;;;;;;4913172;29;20091;-83
2022/03/31 01:43:22;;;;;;;1.73;0.50;;;2.80;99.90;;;;;;4896280;29;20072;-84
2022/03/31 01:45:54;;;;;;;4.05;0.70;;;2.80;99.90;;;;;;4911719;29;21428;-84
2022/03/31 01:48:20;;;;;;;2.67;0.68;;;2.80;99.90;;;;;;4894098;29;20123;-84
2022/03/31 01:50:46;;;;;;;5.30;1.08;;;2.80;99.90;;;;;;4916040;29;20118;-83
2022/03/31 01:53:14;;;;;;;4.30;0.80;;;2.80;99.90;;;;;;4897253;29;20043;-82
2022/03/31 01:55:40;;;;;;;3.72;0.68;;;2.80;99.90;;;;;;4913576;29;20058;-82
2022/03/31 01:58:07;;;;;;;2.10;0.73;;;2.80;99.90;;;;;;4912029;29;20069;-84
2022/03/31 02:00:33;;;;;;;2.72;0.73;;;2.80;99.90;;;;;;4884644;29;20056;-83
2022/03/31 02:02:59;;;;;;;7.45;1.48;;;2.90;99.90;;;;;;4877930;29;20494;-84
2022/03/31 02:05:25;;;;;;;3.08;0.98;;;2.90;99.90;;;;;;4895123;29;20056;-83
2022/03/31 02:07:55;;;;;;;3.70;0.70;;;2.90;99.90;;;;;;4895862;29;20048;-83
2022/03/31 02:10:22;;;;;;;4.85;0.70;;;2.90;99.90;;;;;;4896801;29;20452;-84
2022/03/31 02:12:49;;;;;;;3.15;0.75;;;2.90;99.90;;;;;;4885725;29;20040;-83
2022/03/31 02:15:15;;;;;;;4.90;0.77;;;2.90;99.90;;;;;;4907908;29;20491;-84
2022/03/31 02:17:41;;;;;;;4.90;0.60;;;2.90;99.90;;;;;;4883169;29;20095;-83
2022/03/31 02:20:08;;;;;;;2.42;0.60;;;3.00;99.90;;;;;;4882851;29;20521;-82
2022/03/31 02:22:34;;;;;;;3.45;0.77;;;3.00;99.90;;;;;;4881626;29;20079;-84
2022/03/31 02:25:00;;;;;;;3.67;0.70;;;3.00;99.90;;;;;;4890134;29;20069;-84
2022/03/31 02:27:26;;;;;;;3.50;0.70;;;3.00;99.90;;;;;;4893848;29;20051;-84
2022/03/31 02:29:51;;;;;;;2.95;0.80;;;3.00;99.90;;;;;;4910914;29;20044;-84
2022/03/31 02:32:17;;;;;;;4.35;0.60;;;3.00;99.90;;;;;;4895792;29;20454;-83
2022/03/31 02:34:43;;;;;;;2.97;0.70;;;3.00;99.90;;;;;;4898943;29;20044;-84
2022/03/31 02:37:08;;;;;;;5.20;0.70;;;3.00;99.90;;;;;;4881383;29;20060;-84
2022/03/31 02:39:34;;;;;;;3.95;0.60;;;3.00;99.90;;;;;;4896407;29;20127;-84
2022/03/31 02:42:03;;;;;;;4.30;0.75;;;3.00;99.90;;;;;;4878259;29;20072;-84
2022/03/31 02:44:29;;;;;;;4.10;0.50;;;3.00;99.90;;;;;;4896848;29;20135;-83
2022/03/31 02:46:54;;;;;;;3.15;0.57;;;3.00;99.90;;;;;;4910154;29;20132;-84
2022/03/31 02:49:20;;;;;;;1.52;0.40;;;3.00;99.90;;;;;;4901667;29;20076;-84
2022/03/31 02:51:46;;;;;;;4.05;0.70;;;3.00;99.90;;;;;;4881048;29;20051;-84
2022/03/31 02:56:56;;;;;;;3.85;0.70;;;3.00;99.90;;;;;;4898733;29;20115;-84
2022/03/31 02:59:22;;;;;;;2.45;0.32;;;2.90;99.90;;;;;;4881190;29;20139;-84
2022/03/31 03:01:48;;;;;;;1.48;0.45;;;2.90;99.90;;;;;;4900161;29;20100;-83
2022/03/31 03:04:14;;;;;;;3.28;0.50;;;2.90;99.90;;;;;;4929306;29;20490;-83
2022/03/31 03:06:39;;;;;;;2.35;0.55;;;2.90;99.90;;;;;;4913987;29;20043;-84
2022/03/31 03:09:06;;;;;;;3.80;0.60;;;2.90;99.90;;;;;;4897219;29;20047;-84
2022/03/31 03:11:32;;;;;;;4.00;0.52;;;2.90;99.90;;;;;;4896798;29;20118;-84
2022/03/31 03:13:58;;;;;;;2.15;0.50;;;2.90;99.90;;;;;;4913428;29;20612;-83
2022/03/31 03:16:25;;;;;;;10.70;0.70;;;2.90;99.90;;;;;;4897665;29;20092;-84
2022/03/31 03:18:52;;;;;;;3.50;1.10;;;2.90;99.90;;;;;;4896719;29;20092;-84
2022/03/31 03:21:19;;;;;;;3.03;0.77;;;2.90;99.90;;;;;;4898886;29;20070;-84
2022/03/31 03:23:46;;;;;;;4.03;0.70;;;2.90;99.90;;;;;;4917739;29;20048;-84
2022/03/31 03:26:12;;;;;;;9.80;0.82;;;2.90;99.90;;;;;;4913022;29;20090;-82
2022/03/31 03:28:38;;;;;;;6.25;0.98;;;2.90;99.90;;;;;;4913030;29;20510;-84
2022/03/31 03:31:07;;;;;;;2.88;0.90;;;3.00;99.90;;;;;;4898791;29;20119;-84
2022/03/31 03:33:34;;;;;;;3.72;0.70;;;3.00;99.90;;;;;;4912793;29;20033;-84
2022/03/31 03:36:00;;;;;;;4.75;1.58;;;3.00;99.90;;;;;;4895979;29;20071;-83
2022/03/31 03:38:26;;;;;;;6.07;0.93;;;3.00;99.90;;;;;;4896288;29;20532;-84
2022/03/31 03:40:52;;;;;;;6.50;0.70;;;3.00;99.90;;;;;;4894924;29;20091;-84
2022/03/31 03:43:18;;;;;;;3.08;0.60;;;3.00;99.90;;;;;;4911524;29;20044;-84
2022/03/31 03:45:45;;;;;;;2.63;0.93;;;3.00;99.90;;;;;;4911337;29;20039;-84
2022/03/31 03:48:11;;;;;;;2.15;0.80;;;3.00;99.90;;;;;;4917751;29;20051;-82
2022/03/31 03:50:38;;;;;;;6.60;1.08;;;3.00;99.90;;;;;;4909786;29;20098;-84
2022/03/31 03:53:07;;;;;;;3.22;0.75;;;3.00;99.90;;;;;;4901246;29;20039;-83
2022/03/31 03:55:36;;;;;;;6.65;1.02;;;3.00;99.90;;;;;;4908008;29;20059;-84
2022/03/31 03:58:03;;;;;;;5.13;1.08;;;2.90;99.90;;;;;;4911533;29;20051;-85
2022/03/31 04:00:29;;;;;;;3.80;0.90;;;2.90;99.90;;;;;;4889968;29;20174;-83
2022/03/31 04:02:55;;;;;;;4.95;0.95;;;2.80;99.90;;;;;;4906278;29;20051;-84
2022/03/31 04:05:21;;;;;;;6.45;1.10;;;2.80;99.90;;;;;;4909904;29;20047;-83
2022/03/31 04:07:47;;;;;;;6.20;1.10;;;2.80;99.90;;;;;;4892747;29;20043;-84
2022/03/31 04:10:13;;;;;;;5.43;2.03;;;2.80;99.90;;;;;;4895330;29;20070;-84
2022/03/31 04:12:39;;;;;;;6.75;1.67;;;2.80;99.90;;;;;;4908971;29;20469;-83
2022/03/31 04:15:06;;;;;;;6.75;1.95;;;2.80;99.90;;;;;;4902819;29;20033;-83
2022/03/31 04:17:33;;;;;;;5.40;1.48;;;2.80;99.90;;;;;;4909585;29;20127;-83
2022/03/31 04:19:58;;;;;;;5.25;1.25;;;2.80;99.90;;;;;;4912971;29;20048;-83
2022/03/31 04:22:24;;;;;;;7.68;1.67;;;2.80;99.90;;;;;;4908727;29;20213;-84
2022/03/31 04:24:50;;;;;;;3.80;1.55;;;2.80;99.90;;;;;;4913320;29;20044;-84
2022/03/31 04:27:16;;;;;;;6.40;1.55;;;2.80;99.90;;;;;;4915737;29;20044;-83
2022/03/31 04:29:42;;;;;;;3.92;1.70;;;2.70;99.90;;;;;;4900427;29;20485;-83
2022/03/31 04:32:08;;;;;;;8.55;2.65;;;2.80;99.90;;;;;;4911968;29;20565;-83
2022/03/31 04:34:34;;;;;;;6.28;2.55;;;2.80;99.90;;;;;;4910521;29;20511;-83
2022/03/31 04:37:00;;;;;;;8.43;2.47;;;2.80;99.90;;;;;;4913839;29;20044;-84
2022/03/31 04:39:26;;;;;;;5.38;2.60;;;2.80;99.90;;;;;;4898177;29;20367;-82
2022/03/31 04:41:52;;;;;;;5.60;2.50;;;2.80;99.90;;;;;;4898608;29;20051;-84
2022/03/31 04:44:19;;;;;;;3.55;1.52;;;2.80;99.90;;;;;;4899517;29;20044;-83
2022/03/31 04:46:45;;;;;;;3.53;1.67;;;2.70;99.90;;;;;;4910497;29;20091;-83
2022/03/31 04:49:11;;;;;;;4.03;1.77;;;2.70;99.90;;;;;;4895560;29;20044;-84
2022/03/31 04:51:37;;;;;;;5.93;2.05;;;2.70;99.90;;;;;;4892916;29;20039;-84
2022/03/31 04:54:03;;;;;;;5.53;2.28;;;2.70;99.90;;;;;;4892838;29;20040;-84
2022/03/31 04:56:29;;;;;;;7.28;2.20;;;2.60;99.90;;;;;;4895418;29;20102;-83
2022/03/31 04:58:55;;;;;;;4.45;2.08;;;2.60;99.90;;;;;;4897509;29;20052;-84
2022/03/31 05:01:22;;;;;;;3.45;1.90;;;2.60;99.90;;;;;;4896399;29;20559;-83
2022/03/31 05:03:48;;;;;;;3.80;1.90;;;2.60;99.90;;;;;;4898478;29;20497;-84
2022/03/31 05:06:14;;;;;;;3.40;1.90;;;2.60;99.90;;;;;;4921664;29;20040;-83
2022/03/31 05:08:39;;;;;;;3.33;1.77;;;2.60;99.90;;;;;;4901109;29;20043;-83
2022/03/31 05:11:05;;;;;;;5.25;2.50;;;2.60;99.90;;;;;;4897771;29;20043;-83
2022/03/31 05:13:30;;;;;;;5.82;2.30;;;2.60;99.90;;;;;;4914884;29;20055;-83
2022/03/31 05:15:56;;;;;;;4.75;2.33;;;2.60;99.90;;;;;;4914336;29;20095;-83
2022/03/31 05:18:22;;;;;;;4.72;2.53;;;2.60;99.90;;;;;;4913708;29;20056;-84
2022/03/31 05:20:47;;;;;;;6.32;2.80;;;2.70;99.90;;;;;;4898520;29;20062;-83
2022/03/31 05:23:13;;;;;;;6.55;2.70;;;2.70;99.90;;;;;;4895040;29;20039;-83
2022/03/31 05:25:39;;;;;;;5.50;2.85;;;2.70;99.90;;;;;;4894787;29;20067;-83
2022/03/31 05:28:05;;;;;;;4.28;2.45;;;2.70;99.90;;;;;;4912899;29;20089;-83
2022/03/31 05:30:31;;;;;;;6.15;3.15;;;2.70;99.90;;;;;;4921186;29;20035;-83
2022/03/31 05:32:59;;;;;;;5.63;3.30;;;2.70;99.90;;;;;;4909681;29;20047;-83
2022/03/31 05:35:27;;;;;;;5.93;3.28;;;2.70;99.90;;;;;;4912883;29;20039;-83
2022/03/31 05:37:53;;;;;;;5.13;2.95;;;2.70;99.90;;;;;;4910857;29;20455;-84
2022/03/31 05:40:19;;;;;;;6.63;3.28;;;2.70;99.90;;;;;;4897089;29;20039;-83
2022/03/31 05:42:45;;;;;;;7.03;3.90;;;2.80;99.90;;;;;;4928539;29;20039;-83
2022/03/31 05:45:12;;;;;;;7.72;4.22;;;2.80;99.90;;;;;;4898693;29;20424;-83
2022/03/31 05:47:40;;;;;;;8.27;4.00;;;2.80;99.90;;;;;;4914124;29;20043;-82
2022/03/31 05:50:08;;;;;;;8.25;3.90;;;2.80;99.90;;;;;;4892907;29;20123;-82
2022/03/31 05:52:38;;;;;;;6.25;3.97;;;2.80;99.90;;;;;;4926959;29;20051;-83
2022/03/31 05:55:07;;;;;;;6.35;3.83;;;2.80;99.90;;;;;;4907055;29;20050;-83
2022/03/31 05:57:34;;;;;;;6.38;3.90;;;2.90;99.90;;;;;;4932233;29;20062;-82
2022/03/31 06:00:00;;;;;;;7.03;3.75;;;2.90;99.90;;;;;;4909118;29;20059;-84
2022/03/31 06:02:26;;;;;;;6.65;3.88;;;2.90;99.90;;;;;;4906263;29;20553;-83
2022/03/31 06:04:51;;;;;;;6.43;3.83;;;2.90;99.90;;;;;;4909953;29;20044;-83
2022/03/31 06:07:17;;;;;;;5.45;3.35;;;2.90;99.90;;;;;;4909269;29;20066;-84
2022/03/31 06:09:43;;;;;;;6.95;3.88;;;2.90;99.90;;;;;;4906985;29;20063;-83
2022/03/31 06:12:09;;;;;;;5.68;3.58;;;2.90;99.90;;;;;;4884306;29;20040;-83
2022/03/31 06:14:35;;;;;;;5.38;3.30;;;3.00;99.90;;;;;;4890976;29;20044;-84
2022/03/31 06:17:00;;;;;;;5.72;3.45;;;2.90;99.90;;;;;;4890843;29;20059;-84
2022/03/31 06:19:26;;;;;;;5.30;3.30;;;3.00;99.90;;;;;;4909089;29;20088;-85
2022/03/31 06:21:52;;;;;;;5.18;3.03;;;3.00;99.90;;;;;;4891743;29;20540;-83
2022/03/31 06:24:18;;;;;;;4.72;2.78;;;3.00;99.90;;;;;;4893054;29;20052;-84
2022/03/31 06:26:43;;;;;;;5.88;3.38;;;3.10;99.90;;;;;;4890803;29;20047;-83
2022/03/31 06:29:09;;;;;;;5.78;3.20;;;3.10;99.90;;;;;;4909793;29;20044;-83
2022/03/31 06:31:38;;;;;;;5.53;3.20;;;3.10;99.90;;;;;;4891595;29;20055;-84
2022/03/31 06:34:03;;;;;;;4.85;3.00;;;3.10;99.90;;;;;;4891149;29;20051;-83
2022/03/31 06:36:30;;;;;;;9.10;4.10;;;3.10;99.90;;;;;;4908927;29;20037;-83
2022/03/31 06:38:56;;;;;;;7.07;3.92;;;3.10;99.90;;;;;;4911400;29;20461;-83
2022/03/31 06:41:22;;;;;;;5.95;3.35;;;3.10;99.90;;;;;;4907306;29;20425;-84
2022/03/31 06:43:48;;;;;;;5.68;3.40;;;3.20;99.90;;;;;;4893581;29;20036;-82
2022/03/31 06:46:15;;;;;;;5.50;3.70;;;3.20;99.90;;;;;;4906187;29;20035;-83
2022/03/31 06:48:43;;;;;;;5.03;3.13;;;3.20;99.90;;;;;;4905947;29;20405;-82
2022/03/31 06:51:10;;;;;;;5.80;3.60;;;3.30;99.90;;;;;;4897199;29;20135;-82
2022/03/31 06:53:37;;;;;;;6.40;3.72;;;3.30;99.90;;;;;;4915371;29;20036;-83
2022/03/31 06:56:06;;;;;;;5.53;3.38;;;3.30;99.90;;;;;;4915922;29;20151;-84
2022/03/31 06:58:31;;;;;;;6.78;3.53;;;3.40;99.90;;;;;;4910886;29;20409;-84
2022/03/31 07:00:58;;;;;;;6.00;3.47;;;3.40;99.90;;;;;;4930727;29;20047;-83
2022/03/31 07:03:24;;;;;;;5.13;3.40;;;3.50;99.90;;;;;;4900584;29;20051;-83
2022/03/31 07:05:50;;;;;;;5.00;3.13;;;3.50;99.90;;;;;;4917775;29;20039;-82
2022/03/31 07:08:15;;;;;;;4.93;2.90;;;3.50;99.90;;;;;;4906764;29;20138;-82
2022/03/31 07:10:41;;;;;;;6.53;3.15;;;3.40;99.90;;;;;;4923394;29;20123;-83
2022/03/31 07:13:07;;;;;;;5.95;3.60;;;3.50;99.90;;;;;;4940230;29;20482;-82
2022/03/31 07:15:33;;;;;;;5.85;3.72;;;3.50;99.90;;;;;;4936192;29;20035;-82
2022/03/31 07:18:03;;;;;;;6.22;3.55;;;3.50;99.90;;;;;;4935179;29;20055;-83
2022/03/31 07:20:30;;;;;;;5.30;3.65;;;3.50;99.90;;;;;;4920551;29;20209;-82
2022/03/31 07:22:56;;;;;;;5.30;3.20;;;3.50;99.90;;;;;;4917949;29;20044;-82
2022/03/31 07:25:22;;;;;;;4.72;2.97;;;3.60;99.90;;;;;;4905798;29;20044;-83
2022/03/31 07:27:49;;;;;;;5.78;3.30;;;3.60;99.90;;;;;;4915663;29;20035;-82
2022/03/31 07:30:16;;;;;;;5.25;3.35;;;3.60;99.90;;;;;;4919177;29;20040;-83
2022/03/31 07:32:47;;;;;;;6.50;4.10;;;3.60;99.90;;;;;;4918666;29;20519;-81
2022/03/31 07:35:13;;;;;;;6.55;3.60;;;3.60;99.90;;;;;;4931595;29;20055;-83
2022/03/31 07:37:39;;;;;;;5.90;3.70;;;3.60;99.90;;;;;;4904211;29;20051;-82
2022/03/31 07:40:05;;;;;;;6.78;4.55;;;3.60;99.90;;;;;;4915982;29;20120;-82
2022/03/31 07:42:31;;;;;;;5.82;4.13;;;3.60;99.90;;;;;;4917155;29;20039;-83
2022/03/31 07:44:56;;;;;;;5.53;3.42;;;3.60;99.90;;;;;;4917279;29;20058;-83
2022/03/31 07:47:22;;;;;;;7.88;4.20;;;3.60;99.90;;;;;;4907117;29;20046;-84
2022/03/31 07:49:49;;;;;;;5.65;3.53;;;3.60;99.90;;;;;;4901119;29;20071;-83
2022/03/31 07:52:16;;;;;;;6.28;3.47;;;3.60;99.90;;;;;;4902157;29;20039;-83
2022/03/31 07:54:42;;;;;;;6.43;2.97;;;3.60;99.90;;;;;;4917991;29;20036;-84
2022/03/31 07:57:08;;;;;;;4.75;3.25;;;3.60;99.90;;;;;;4917360;29;20043;-83
2022/03/31 07:59:34;;;;;;;6.15;3.70;;;3.60;99.90;;;;;;4900539;29;20065;-84
2022/03/31 08:02:00;;;;;;;6.25;3.60;;;3.60;99.90;;;;;;4902246;29;20047;-83
2022/03/31 08:04:27;;;;;;;6.15;3.70;;;3.60;99.90;;;;;;4912320;29;20040;-84
2022/03/31 08:06:53;;;;;;;4.88;3.35;;;3.60;99.90;;;;;;4900378;29;20076;-84
2022/03/31 08:09:21;;;;;;;4.97;3.15;;;3.60;99.90;;;;;;4914066;29;20114;-83
2022/03/31 08:11:50;;;;;;;5.43;3.50;;;3.50;99.90;;;;;;4914427;29;20040;-84
2022/03/31 08:14:17;;;;;;;4.68;3.15;;;3.60;99.90;;;;;;4916410;29;20031;-83
2022/03/31 08:16:47;;;;;;;5.03;3.38;;;3.60;99.90;;;;;;4899695;29;20118;-82
2022/03/31 08:19:17;;;;;;;6.00;3.15;;;3.60;99.90;;;;;;4931856;29;20047;-82
2022/03/31 08:21:43;;;;;;;4.78;3.10;;;3.60;99.90;;;;;;4902705;29;20078;-83
2022/03/31 08:24:11;;;;;;;5.13;3.30;;;3.60;99.90;;;;;;4911163;29;20079;-83
2022/03/31 08:26:37;;;;;;;4.45;2.75;;;3.60;99.90;;;;;;4908728;29;20486;-84
2022/03/31 08:29:04;;;;;;;4.00;2.55;;;3.60;99.90;;;;;;4914729;29;20071;-84
2022/03/31 08:31:30;;;;;;;3.85;2.38;;;3.50;99.90;;;;;;4898621;29;20050;-84
2022/03/31 08:33:56;;;;;;;3.75;2.60;;;3.60;99.90;;;;;;4933591;29;20122;-84
2022/03/31 08:36:22;;;;;;;4.07;2.78;;;3.60;99.90;;;;;;4928886;29;20035;-83
2022/03/31 08:38:48;;;;;;;3.88;2.50;;;3.60;99.90;;;;;;4894218;29;20054;-83
2022/03/31 08:41:16;;;;;;;4.18;2.40;;;3.60;99.90;;;;;;4914051;29;20451;-84
2022/03/31 08:43:42;;;;;;;3.83;2.50;;;3.60;99.90;;;;;;4934328;29;20040;-84
2022/03/31 08:46:12;;;;;;;3.60;2.72;;;3.70;99.90;;;;;;4897766;29;20055;-83
2022/03/31 08:48:38;;;;;;;4.47;2.85;;;3.70;99.90;;;;;;4929976;29;20449;-84
2022/03/31 08:51:04;;;;;;;4.63;3.08;;;3.70;99.90;;;;;;4912854;29;20071;-83
2022/03/31 08:53:34;;;;;;;3.50;2.40;;;3.60;99.90;;;;;;4914354;29;20425;-84
2022/03/31 08:56:00;;;;;;;8.07;2.35;;;3.70;99.90;;;;;;4914094;29;20036;-84
2022/03/31 08:58:26;;;;;;;3.47;2.55;;;3.70;99.90;;;;;;4898599;29;20035;-84
2022/03/31 09:00:52;;;;;;;3.78;2.58;;;3.70;99.90;;;;;;4927183;29;20067;-84
2022/03/31 09:03:18;;;;;;;4.18;2.92;;;3.80;99.90;;;;;;4912820;29;20078;-84
2022/03/31 09:05:45;;;;;;;3.72;2.72;;;3.80;99.90;;;;;;4894718;29;20094;-84
2022/03/31 09:08:13;;;;;;;4.70;3.10;;;3.90;99.90;;;;;;4897771;29;20118;-83
2022/03/31 09:10:47;;;;;;;3.65;2.55;;;3.90;99.90;;;;;;4912929;29;20596;-83
2022/03/31 09:13:40;;;;;;;5.15;3.35;;;4.00;99.90;;;;;;4911454;29;20046;-83
2022/03/31 09:16:09;;;;;;;4.03;2.75;;;4.10;99.90;;;;;;4898223;29;20043;-84
2022/03/31 09:18:36;;;;;;;5.03;3.25;;;4.10;99.90;;;;;;4911064;29;20086;-84
2022/03/31 09:21:05;;;;;;;4.28;2.72;;;4.10;99.90;;;;;;4897105;29;20067;-84
2022/03/31 09:23:52;;;;;;;4.75;3.00;;;4.20;99.90;;;;;;4896612;29;20736;-83
2022/03/31 09:26:18;;;;;;;5.80;3.15;;;4.10;99.90;;;;;;4895788;29;20139;-84
2022/03/31 09:28:45;;;;;;;5.30;3.35;;;4.10;99.90;;;;;;4913461;29;20130;-83
2022/03/31 09:31:12;;;;;;;4.68;3.10;;;4.10;99.90;;;;;;4912077;29;20043;-83
2022/03/31 09:33:45;;;;;;;5.15;3.25;;;4.00;99.90;;;;;;4912259;29;20046;-84
2022/03/31 09:36:22;;;;;;;4.07;2.65;;;4.10;99.90;;;;;;4912294;29;20393;-83
2022/03/31 09:39:00;;;;;;;3.95;2.72;;;4.10;99.90;;;;;;4898341;29;20039;-83
2022/03/31 09:41:31;;;;;;;3.65;2.40;;;4.00;99.90;;;;;;4915673;29;20513;-83
2022/03/31 09:44:12;;;;;;;3.58;2.55;;;4.00;99.90;;;;;;4909505;29;20044;-86
2022/03/31 09:46:39;;;;;;;3.50;2.33;;;4.00;99.90;;;;;;4896691;29;20040;-84
2022/03/31 09:49:16;;;;;;;3.60;2.30;;;4.00;99.90;;;;;;4894087;29;20044;-84
2022/03/31 09:51:44;;;;;;;3.55;2.35;;;4.00;99.90;;;;;;4909115;29;20032;-84
2022/03/31 09:54:11;;;;;;;3.67;2.50;;;4.00;99.90;;;;;;4919351;29;20082;-84
2022/03/31 09:56:40;;;;;;;3.72;2.75;;;4.00;99.90;;;;;;4906494;29;20464;-83
2022/03/31 09:59:15;;;;;;;3.50;2.30;;;4.00;99.90;;;;;;4890468;29;20070;-83
2022/03/31 10:01:41;;;;;;;3.05;1.98;;;4.00;99.90;;;;;;4895321;29;20500;-84
2022/03/31 10:04:09;;;;;;;3.33;2.20;;;4.00;99.90;;;;;;4894497;29;20038;-84
2022/03/31 10:06:39;;;;;;;4.13;2.20;;;3.90;99.90;;;;;;4892569;29;20032;-83
2022/03/31 10:09:12;;;;;;;3.28;2.20;;;4.00;99.90;;;;;;4911575;29;20047;-84
2022/03/31 10:11:43;;;;;;;3.50;2.17;;;4.00;99.90;;;;;;4895653;29;20087;-84
2022/03/31 10:14:47;;;;;;;2.97;1.98;;;4.10;99.90;;;;;;4929738;29;20122;-84
2022/03/31 10:17:13;;;;;;;2.50;1.55;;;4.10;99.90;;;;;;4896717;29;20047;-83
2022/03/31 10:19:46;;;;;;;3.03;1.90;;;4.10;99.90;;;;;;4931699;29;20046;-84
2022/03/31 10:25:03;;;;;;;2.50;1.35;;;4.10;99.90;;;;;;4929941;29;20059;-83
2022/03/31 10:27:33;;;;;;;2.15;1.25;;;4.00;99.90;;;;;;4913617;29;20849;-83
2022/03/31 10:30:16;;;;;;;2.70;1.45;;;3.90;99.90;;;;;;4929016;29;22509;-83
2022/03/31 10:32:56;;;;;;;2.70;1.05;;;3.80;99.90;;;;;;4896293;29;20504;-82
2022/03/31 10:35:34;;;;;;;2.15;1.20;;;3.70;99.90;;;;;;4916232;29;20071;-83
2022/03/31 10:38:16;;;;;;;2.13;1.05;;;3.60;99.90;;;;;;4895698;29;20097;-84
2022/03/31 10:40:44;;;;;;;2.10;1.15;;;3.60;99.90;;;;;;4917006;29;20102;-84
2022/03/31 10:43:22;;;;;;;1.55;0.98;;;3.50;99.90;;;;;;4897455;29;20103;-83
2022/03/31 10:45:48;;;;;;;2.10;1.08;;;3.40;99.90;;;;;;4932803;29;20123;-84
2022/03/31 10:48:19;;;;;;;2.83;1.50;;;3.40;99.90;;;;;;4896032;29;20066;-82
2022/03/31 10:50:47;;;;;;;1.95;1.00;;;3.30;99.90;;;;;;4912452;29;20047;-83
2022/03/31 10:53:13;;;;;;;2.20;1.25;;;3.30;99.90;;;;;;4898672;29;20114;-82
2022/03/31 10:55:50;;;;;;;2.22;1.33;;;3.30;99.90;;;;;;4931525;29;20127;-83
2022/03/31 10:58:27;;;;;;;2.30;1.20;;;3.30;99.90;;;;;;4909763;29;20127;-83
2022/03/31 11:01:00;;;;;;;2.28;1.05;;;3.20;99.90;;;;;;4894094;29;20056;-83
2022/03/31 11:03:26;;;;;;;;;;;3.20;99.90;;;;;;4930785;29;20667;-83
2022/03/31 11:05:53;;;;;;;2.15;1.17;;;3.20;99.90;;;;;;4897486;29;19982;-85
2022/03/31 11:08:18;;;;;;;2.00;1.10;;;3.30;99.90;;;;;;4902133;29;20042;-84
2022/03/31 11:10:49;;;;;;;2.08;1.20;;;3.30;99.90;;;;;;4901173;29;20040;-84
2022/03/31 11:13:17;;;;;;;2.08;1.08;;;3.30;99.90;;;;;;4897957;29;20039;-83
2022/03/31 11:15:54;;;;;;;2.25;1.17;;;3.30;99.90;;;;;;4910959;29;20036;-81
2022/03/31 11:18:21;;;;;;;4.72;1.33;;;3.30;99.90;;;;;;4925104;29;20154;-84
2022/03/31 11:20:59;;;;;;;2.35;1.42;;;3.30;99.90;;;;;;4913552;29;20106;-84
2022/03/31 11:23:28;;;;;;;2.00;1.15;;;3.30;99.90;;;;;;4910133;29;21586;-82
2022/03/31 11:25:54;;;;;;;2.78;1.50;;;3.20;99.90;;;;;;4899979;29;20039;-84
2022/03/31 11:28:21;;;;;;;1.75;0.95;;;3.20;99.90;;;;;;4910103;29;20101;-84
2022/03/31 11:30:48;;;;;;;2.88;1.42;;;3.20;99.90;;;;;;4914498;29;20114;-82
2022/03/31 11:33:15;;;;;;;2.60;1.50;;;3.10;99.90;;;;;;4897892;29;20118;-82
2022/03/31 11:35:42;;;;;;;2.03;1.23;;;3.10;99.90;;;;;;4912553;29;20044;-82
2022/03/31 11:38:17;;;;;;;2.80;1.40;;;3.00;99.90;;;;;;4914860;29;20080;-83
2022/03/31 11:40:45;;;;;;;5.00;1.48;;;3.00;99.90;;;;;;4912611;29;20048;-82
2022/03/31 11:43:14;;;;;;;3.00;1.45;;;3.00;99.90;;;;;;4934366;29;20392;-83
2022/03/31 11:45:50;;;;;;;2.22;1.20;;;2.90;99.90;;;;;;4927923;29;20051;-83
2022/03/31 11:48:18;;;;;;;2.20;1.25;;;2.90;99.90;;;;;;4901748;29;20043;-82
2022/03/31 11:50:55;;;;;;;2.38;1.33;;;2.90;99.90;;;;;;4896815;29;20075;-83
2022/03/31 11:53:32;;;;;;;2.42;1.35;;;2.80;99.90;;;;;;4913306;29;20046;-83
2022/03/31 11:56:09;;;;;;;3.85;1.75;;;2.80;99.90;;;;;;4885006;29;20126;-83
2022/03/31 11:58:46;;;;;;;2.25;1.20;;;2.70;99.90;;;;;;4896849;29;20386;-83
2022/03/31 12:01:17;;;;;;;2.13;1.30;;;2.70;99.90;;;;;;4912158;29;20055;-81
2022/03/31 12:03:43;;;;;;;2.78;1.38;;;2.60;99.90;;;;;;4914367;29;20638;-83
2022/03/31 12:06:16;;;;;;;2.42;1.40;;;2.50;99.90;;;;;;4897926;29;20071;-83
2022/03/31 12:08:43;;;;;;;2.15;1.13;;;2.50;99.90;;;;;;4911313;29;20123;-82
2022/03/31 12:11:10;;;;;;;3.95;1.77;;;2.50;99.90;;;;;;4894863;29;20043;-83
2022/03/31 12:13:53;;;;;;;2.40;1.35;;;2.40;99.90;;;;;;4895702;29;20043;-82
2022/03/31 12:16:21;;;;;;;3.05;1.40;;;2.40;99.90;;;;;;4912774;29;20082;-84
2022/03/31 12:18:59;;;;;;;2.13;1.23;;;2.40;99.90;;;;;;4910019;29;20047;-82
2022/03/31 12:21:26;;;;;;;2.45;1.20;;;2.40;99.90;;;;;;4930545;29;20050;-84
2022/03/31 12:23:53;;;;;;;2.55;1.48;;;2.40;99.90;;;;;;4898705;29;20449;-83
2022/03/31 12:26:22;;;;;;;2.20;1.25;;;2.30;99.90;;;;;;4897901;29;20050;-84
2022/03/31 12:28:49;;;;;;;2.90;1.63;;;2.30;99.90;;;;;;4912362;29;20074;-83
2022/03/31 12:31:26;;;;;;;2.95;1.33;;;2.30;99.90;;;;;;4910371;29;20062;-84
2022/03/31 12:33:53;;;;;;;3.72;1.88;;;2.30;99.90;;;;;;4895172;29;20058;-83
2022/03/31 12:36:37;;;;;;;3.55;1.70;;;2.30;99.90;;;;;;4878399;29;20123;-83
2022/03/31 12:39:05;;;;;;;3.70;2.03;;;2.40;99.90;;;;;;4912139;29;20062;-83
2022/03/31 12:41:36;;;;;;;3.63;1.90;;;2.40;99.90;;;;;;4913080;29;20118;-83
2022/03/31 12:44:09;;;;;;;4.65;2.33;;;2.40;99.90;;;;;;4910687;29;20051;-83
2022/03/31 12:46:43;;;;;;;3.72;2.10;;;2.40;99.90;;;;;;4897414;29;20079;-83
2022/03/31 12:49:10;;;;;;;3.75;2.30;;;2.40;99.90;;;;;;4924908;29;20952;-83
2022/03/31 12:51:52;;;;;;;4.43;2.60;;;2.40;99.90;;;;;;4898470;29;20441;-83
2022/03/31 12:54:38;;;;;;;3.60;1.70;;;2.40;99.90;;;;;;4913009;29;20046;-82
2022/03/31 12:57:25;;;;;;;4.10;2.17;;;2.40;99.90;;;;;;4910895;29;20083;-83
2022/03/31 13:00:09;;;;;;;4.18;2.28;;;2.40;99.90;;;;;;4894612;29;20068;-82
2022/03/31 13:02:39;;;;;;;4.38;1.90;;;2.40;99.90;;;;;;4908472;29;20578;-83
2022/03/31 13:05:06;;;;;;;3.92;2.10;;;2.40;99.90;;;;;;4908166;29;20039;-83
2022/03/31 13:07:32;;;;;;;3.67;1.85;;;2.40;99.90;;;;;;4910846;29;20036;-82
2022/03/31 13:10:00;;;;;;;4.53;2.28;;;2.40;99.90;;;;;;4928543;29;20766;-85